createdAt,value
2018-08-22T00:01:49.295Z,17.69
2018-08-22T00:04:23.198Z,17.62
2018-08-22T00:06:56.298Z,17.87
2018-08-22T00:09:29.552Z,17.87
2018-08-22T00:12:02.696Z,17.75
2018-08-22T00:14:35.944Z,17.62
2018-08-22T00:17:09.022Z,17.81
2018-08-22T00:19:42.091Z,17.56
2018-08-22T00:22:15.270Z,17.87
2018-08-22T00:24:48.338Z,17.69
2018-08-22T00:27:21.487Z,17.75
2018-08-22T00:29:54.629Z,17.81
2018-08-22T00:32:27.646Z,17.75
2018-08-22T00:35:00.887Z,17.69
2018-08-22T00:37:34.104Z,17.81
2018-08-22T00:40:07.351Z,17.56
2018-08-22T00:42:40.683Z,17.50
2018-08-22T00:45:13.954Z,17.56
2018-08-22T00:47:47.071Z,17.69
2018-08-22T00:50:20.159Z,17.75
2018-08-22T00:52:53.321Z,17.56
2018-08-22T00:55:26.395Z,17.31
2018-08-22T00:57:59.610Z,17.62
2018-08-22T01:00:32.613Z,17.50
2018-08-22T01:03:05.769Z,17.81
2018-08-22T01:05:38.902Z,17.56
2018-08-22T01:08:11.908Z,17.50
2018-08-22T01:10:45.043Z,17.44
2018-08-22T01:13:18.137Z,17.37
2018-08-22T01:15:51.231Z,17.37
2018-08-22T01:18:24.363Z,17.37
2018-08-22T01:20:57.449Z,17.69
2018-08-22T01:23:30.659Z,17.19
2018-08-22T01:26:03.818Z,17.44
2018-08-22T01:28:37.931Z,17.37
2018-08-22T01:31:11.171Z,17.56
2018-08-22T01:33:44.257Z,17.31
2018-08-22T01:36:17.297Z,17.37
2018-08-22T01:38:50.495Z,17.62
2018-08-22T01:41:23.595Z,17.75
2018-08-22T01:43:56.864Z,17.25
2018-08-22T01:46:30.188Z,17.44
2018-08-22T01:49:03.422Z,17.19
2018-08-22T01:51:36.564Z,17.19
2018-08-22T01:54:09.582Z,17.31
2018-08-22T01:56:42.650Z,17.06
2018-08-22T01:59:15.904Z,17.00
2018-08-22T02:01:48.992Z,17.31
2018-08-22T02:04:22.194Z,17.25
2018-08-22T02:06:55.207Z,17.12
2018-08-22T02:09:28.290Z,17.25
2018-08-22T02:12:01.409Z,17.12
2018-08-22T02:14:34.595Z,17.06
2018-08-22T02:17:07.611Z,17.00
2018-08-22T02:19:40.582Z,16.94
2018-08-22T02:22:13.677Z,17.12
2018-08-22T02:24:46.787Z,16.94
2018-08-22T02:27:19.841Z,17.12
2018-08-22T02:29:52.987Z,16.87
2018-08-22T02:32:26.028Z,16.87
2018-08-22T02:34:59.308Z,17.25
2018-08-22T02:37:32.438Z,17.12
2018-08-22T02:40:11.466Z,16.94
2018-08-22T02:42:44.590Z,16.81
2018-08-22T02:45:17.665Z,17.00
2018-08-22T02:47:50.958Z,16.87
2018-08-22T02:50:24.528Z,16.94
2018-08-22T02:52:57.872Z,16.81
2018-08-22T02:55:31.206Z,16.81
2018-08-22T02:58:04.504Z,16.87
2018-08-22T03:00:37.981Z,16.81
2018-08-22T03:03:11.236Z,16.87
2018-08-22T03:05:44.474Z,16.94
2018-08-22T03:08:17.761Z,17.19
2018-08-22T03:10:51.152Z,16.87
2018-08-22T03:13:24.306Z,16.75
2018-08-22T03:15:58.027Z,17.00
2018-08-22T03:18:31.381Z,16.81
2018-08-22T03:21:04.869Z,16.94
2018-08-22T03:23:38.241Z,16.81
2018-08-22T03:26:11.708Z,16.75
2018-08-22T03:28:45.261Z,16.69
2018-08-22T03:31:18.721Z,16.87
2018-08-22T03:33:51.908Z,16.75
2018-08-22T03:36:25.039Z,16.75
2018-08-22T03:38:58.270Z,16.69
2018-08-22T03:41:31.602Z,16.56
2018-08-22T03:44:04.866Z,16.62
2018-08-22T03:46:38.045Z,16.69
2018-08-22T03:49:11.285Z,16.69
2018-08-22T03:51:44.806Z,16.75
2018-08-22T03:54:18.301Z,16.81
2018-08-22T03:56:51.687Z,16.56
2018-08-22T03:59:24.870Z,16.56
2018-08-22T04:01:58.209Z,16.50
2018-08-22T04:04:31.541Z,16.37
2018-08-22T04:07:04.875Z,16.50
2018-08-22T04:09:38.264Z,16.50
2018-08-22T04:12:11.496Z,16.62
2018-08-22T04:14:44.883Z,16.50
2018-08-22T04:17:18.258Z,16.56
2018-08-22T04:19:51.675Z,16.50
2018-08-22T04:22:25.132Z,16.87
2018-08-22T04:24:58.432Z,16.62
2018-08-22T04:27:31.837Z,16.62
2018-08-22T04:30:05.409Z,16.75
2018-08-22T04:32:39.106Z,16.50
2018-08-22T04:35:12.682Z,16.56
2018-08-22T04:40:45.773Z,16.50
2018-08-22T04:43:19.673Z,16.44
2018-08-22T04:45:55.873Z,16.81
2018-08-22T04:48:32.225Z,16.62
2018-08-22T04:51:06.583Z,16.50
2018-08-22T04:53:40.918Z,16.50
2018-08-22T04:56:14.430Z,16.44
2018-08-22T04:58:52.877Z,16.69
2018-08-22T05:01:26.250Z,16.56
2018-08-22T05:03:59.890Z,16.81
2018-08-22T05:06:33.572Z,16.81
2018-08-22T05:09:07.812Z,16.94
2018-08-22T05:11:41.336Z,16.94
2018-08-22T05:14:14.368Z,16.87
2018-08-22T05:16:47.578Z,16.75
2018-08-22T05:19:20.820Z,17.19
2018-08-22T05:24:53.471Z,16.81
2018-08-22T05:27:27.056Z,17.12
2018-08-22T05:30:00.462Z,17.25
2018-08-22T05:32:33.753Z,17.31
2018-08-22T05:35:07.292Z,17.25
2018-08-22T05:37:40.983Z,17.31
2018-08-22T05:40:14.449Z,17.19
2018-08-22T05:42:47.839Z,17.25
2018-08-22T05:45:21.213Z,17.25
2018-08-22T05:47:54.494Z,17.50
2018-08-22T05:50:28.198Z,17.50
2018-08-22T05:53:01.742Z,17.62
2018-08-22T05:55:35.214Z,17.31
2018-08-22T05:58:08.806Z,17.50
2018-08-22T06:00:42.210Z,17.37
2018-08-22T06:03:15.721Z,17.50
2018-08-22T06:05:48.972Z,17.69
2018-08-22T06:08:22.281Z,17.62
2018-08-22T06:10:55.590Z,17.56
2018-08-22T06:13:28.981Z,17.81
2018-08-22T06:16:02.372Z,18.00
2018-08-22T06:18:35.695Z,17.87
2018-08-22T06:21:09.240Z,18.19
2018-08-22T06:23:42.481Z,18.12
2018-08-22T06:26:15.908Z,18.00
2018-08-22T06:28:49.161Z,18.06
2018-08-22T06:31:22.434Z,18.12
2018-08-22T06:33:55.756Z,18.19
2018-08-22T06:36:29.110Z,18.25
2018-08-22T06:39:03.664Z,18.44
2018-08-22T06:41:37.078Z,18.44
2018-08-22T06:44:10.351Z,18.50
2018-08-22T06:46:43.760Z,18.69
2018-08-22T06:49:16.922Z,18.62
2018-08-22T06:51:49.988Z,18.94
2018-08-22T06:54:23.036Z,18.94
2018-08-22T06:56:56.266Z,18.94
2018-08-22T06:59:29.459Z,19.00
2018-08-22T07:02:02.688Z,19.12
2018-08-22T07:04:35.701Z,19.19
2018-08-22T07:07:08.779Z,19.31
2018-08-22T07:09:42.020Z,19.44
2018-08-22T07:12:15.194Z,19.44
2018-08-22T07:14:48.990Z,19.62
2018-08-22T07:17:22.148Z,19.56
2018-08-22T07:19:55.353Z,19.56
2018-08-22T07:22:28.522Z,19.69
2018-08-22T07:25:01.798Z,19.62
2018-08-22T07:27:34.954Z,19.75
2018-08-22T07:30:08.180Z,19.81
2018-08-22T07:32:41.274Z,20.06
2018-08-22T07:35:14.418Z,20.12
2018-08-22T07:37:47.640Z,20.25
2018-08-22T07:40:20.878Z,20.44
2018-08-22T07:42:54.056Z,20.19
2018-08-22T07:45:27.206Z,20.31
2018-08-22T07:48:00.258Z,20.31
2018-08-22T07:50:33.644Z,20.31
2018-08-22T07:53:06.805Z,20.44
2018-08-22T07:55:41.456Z,20.44
2018-08-22T07:58:14.447Z,20.50
2018-08-22T08:00:47.447Z,20.62
2018-08-22T08:03:20.478Z,20.62
2018-08-22T08:05:54.366Z,20.62
2018-08-22T08:08:27.589Z,20.81
2018-08-22T08:11:00.864Z,20.81
2018-08-22T08:13:33.873Z,20.88
2018-08-22T08:16:06.858Z,21.00
2018-08-22T08:18:40.092Z,21.19
2018-08-22T08:21:13.096Z,21.06
2018-08-22T08:23:46.242Z,21.19
2018-08-22T08:26:19.503Z,21.37
2018-08-22T08:28:52.570Z,21.44
2018-08-22T08:31:25.738Z,21.62
2018-08-22T08:33:58.926Z,21.62
2018-08-22T08:36:31.957Z,21.56
2018-08-22T08:39:07.124Z,21.50
2018-08-22T08:41:40.307Z,21.81
2018-08-22T08:44:13.360Z,21.81
2018-08-22T08:46:46.396Z,21.87
2018-08-22T08:49:19.610Z,21.87
2018-08-22T08:51:58.768Z,21.94
2018-08-22T08:54:31.930Z,22.06
2018-08-22T08:57:05.179Z,22.06
2018-08-22T08:59:38.287Z,22.13
2018-08-22T09:02:11.445Z,22.06
2018-08-22T09:04:44.534Z,22.31
2018-08-22T09:07:17.593Z,22.25
2018-08-22T09:09:50.779Z,22.37
2018-08-22T09:12:24.126Z,22.37
2018-08-22T09:17:30.192Z,22.44
2018-08-22T09:20:04.169Z,22.56
2018-08-22T09:22:37.394Z,22.75
2018-08-22T09:25:10.394Z,22.87
2018-08-22T09:27:43.634Z,22.87
2018-08-22T09:30:16.943Z,22.94
2018-08-22T09:32:50.136Z,23.19
2018-08-22T09:35:23.155Z,22.87
2018-08-22T09:37:56.264Z,22.94
2018-08-22T09:40:29.587Z,22.87
2018-08-22T09:43:02.854Z,23.00
2018-08-22T09:45:36.680Z,23.00
2018-08-22T09:48:09.876Z,23.06
2018-08-22T09:50:42.998Z,23.06
2018-08-22T09:53:16.204Z,23.19
2018-08-22T09:55:49.451Z,23.25
2018-08-22T09:58:22.531Z,23.50
2018-08-22T10:01:01.614Z,23.38
2018-08-22T10:03:49.667Z,23.38
2018-08-22T10:06:32.124Z,23.38
2018-08-22T10:09:14.829Z,23.38
2018-08-22T10:11:47.936Z,23.50
2018-08-22T10:14:21.166Z,23.62
2018-08-22T10:16:54.348Z,23.44
2018-08-22T10:19:27.375Z,23.50
2018-08-22T10:22:00.536Z,23.75
2018-08-22T10:24:33.662Z,23.69
2018-08-22T10:27:06.829Z,23.81
2018-08-22T10:29:40.009Z,23.87
2018-08-22T10:32:13.228Z,23.62
2018-08-22T10:34:46.381Z,23.56
2018-08-22T10:37:19.673Z,23.44
2018-08-22T10:39:53.017Z,24.00
2018-08-22T10:42:26.206Z,23.94
2018-08-22T10:44:59.403Z,23.81
2018-08-22T10:47:32.454Z,24.06
2018-08-22T10:50:05.760Z,24.00
2018-08-22T10:52:39.116Z,23.87
2018-08-22T10:55:12.188Z,23.81
2018-08-22T10:57:45.920Z,23.75
2018-08-22T11:00:19.160Z,24.06
2018-08-22T11:02:52.190Z,23.94
2018-08-22T11:05:26.162Z,23.94
2018-08-22T11:07:59.230Z,23.94
2018-08-22T11:10:32.452Z,24.31
2018-08-22T11:13:07.752Z,24.25
2018-08-22T11:15:40.819Z,24.19
2018-08-22T11:18:15.051Z,24.25
2018-08-22T11:20:52.733Z,24.31
2018-08-22T11:23:37.380Z,24.37
2018-08-22T11:26:22.079Z,24.44
2018-08-22T11:29:07.029Z,24.44
2018-08-22T11:31:51.848Z,24.56
2018-08-22T11:34:36.643Z,24.44
2018-08-22T11:37:11.056Z,24.50
2018-08-22T11:39:45.418Z,24.56
2018-08-22T11:42:18.806Z,24.63
2018-08-22T11:44:51.974Z,24.69
2018-08-22T11:47:25.266Z,24.75
2018-08-22T11:49:58.363Z,24.81
2018-08-22T11:52:32.031Z,24.69
2018-08-22T11:55:05.304Z,24.63
2018-08-22T11:57:38.468Z,24.56
2018-08-22T12:00:11.484Z,24.56
2018-08-22T12:02:44.734Z,24.56
2018-08-22T12:05:17.915Z,24.56
2018-08-22T12:07:51.032Z,24.44
2018-08-22T12:10:28.729Z,24.44
2018-08-22T12:13:03.472Z,24.81
2018-08-22T12:15:36.460Z,24.69
2018-08-22T12:18:09.581Z,24.75
2018-08-22T12:20:42.615Z,25.12
2018-08-22T12:23:15.862Z,25.00
2018-08-22T12:25:48.991Z,25.12
2018-08-22T12:28:22.477Z,25.12
2018-08-22T12:30:57.564Z,25.31
2018-08-22T12:33:30.736Z,25.31
2018-08-22T12:36:03.970Z,25.31
2018-08-22T12:38:37.291Z,25.19
2018-08-22T12:41:10.364Z,25.19
2018-08-22T12:43:43.543Z,25.19
2018-08-22T12:46:16.844Z,25.19
2018-08-22T12:48:50.144Z,25.19
2018-08-22T12:51:23.282Z,25.37
2018-08-22T12:58:55.172Z,25.50
2018-08-22T13:01:28.398Z,25.50
2018-08-22T13:04:01.657Z,25.88
2018-08-22T13:06:34.966Z,26.06
2018-08-22T13:09:09.439Z,25.81
2018-08-22T13:11:42.459Z,26.06
2018-08-22T13:19:15.019Z,26.25
2018-08-22T13:21:48.207Z,26.25
2018-08-22T13:24:21.428Z,26.00
2018-08-22T13:26:54.591Z,25.81
2018-08-22T13:29:27.681Z,25.75
2018-08-22T13:32:00.911Z,25.69
2018-08-22T13:34:34.113Z,25.75
2018-08-22T13:37:07.142Z,26.12
2018-08-22T13:39:40.372Z,26.00
2018-08-22T13:42:13.583Z,26.19
2018-08-22T13:44:46.884Z,26.12
2018-08-22T13:47:19.928Z,25.94
2018-08-22T13:49:53.531Z,25.88
2018-08-22T13:52:26.730Z,25.81
2018-08-22T13:54:59.875Z,25.75
2018-08-22T13:57:33.279Z,25.75
2018-08-22T14:00:07.045Z,25.88
2018-08-22T14:02:40.092Z,25.94
2018-08-22T14:05:13.173Z,25.88
2018-08-22T14:07:46.265Z,26.19
2018-08-22T14:10:19.483Z,25.94
2018-08-22T14:12:52.684Z,26.00
2018-08-22T14:15:25.900Z,26.06
2018-08-22T14:17:59.065Z,26.00
2018-08-22T14:20:32.217Z,26.00
2018-08-22T14:23:05.796Z,26.12
2018-08-22T14:25:39.135Z,25.94
2018-08-22T14:28:12.375Z,25.94
2018-08-22T14:30:45.415Z,25.81
2018-08-22T14:33:18.597Z,25.81
2018-08-22T14:35:51.818Z,26.12
2018-08-22T14:38:25.070Z,26.06
2018-08-22T14:40:58.311Z,25.88
2018-08-22T14:43:31.516Z,25.69
2018-08-22T14:46:04.572Z,25.75
2018-08-22T14:48:37.816Z,25.81
2018-08-22T14:51:10.915Z,25.75
2018-08-22T14:53:43.959Z,25.81
2018-08-22T14:56:17.177Z,25.81
2018-08-22T14:58:50.325Z,25.75
2018-08-22T15:01:23.615Z,25.75
2018-08-22T15:03:56.708Z,25.75
2018-08-22T15:06:29.951Z,25.88
2018-08-22T15:09:08.797Z,25.94
2018-08-22T15:11:41.881Z,25.94
2018-08-22T15:14:14.970Z,25.88
2018-08-22T15:16:48.287Z,26.06
2018-08-22T15:19:21.484Z,26.06
2018-08-22T15:21:54.559Z,26.12
2018-08-22T15:24:27.773Z,26.12
2018-08-22T15:27:00.986Z,26.25
2018-08-22T15:29:34.194Z,26.31
2018-08-22T15:32:07.297Z,26.19
2018-08-22T15:34:47.880Z,26.19
2018-08-22T15:37:21.489Z,26.37
2018-08-22T15:39:55.274Z,26.37
2018-08-22T15:42:28.536Z,26.31
2018-08-22T15:45:01.696Z,26.31
2018-08-22T15:47:34.945Z,26.19
2018-08-22T15:50:07.948Z,26.12
2018-08-22T15:52:41.154Z,26.00
2018-08-22T15:55:16.288Z,25.94
2018-08-22T15:57:57.152Z,25.94
2018-08-22T16:00:39.057Z,25.88
2018-08-22T16:03:12.173Z,25.81
2018-08-22T16:05:46.062Z,25.69
2018-08-22T16:08:20.638Z,25.81
2018-08-22T16:10:53.841Z,26.06
2018-08-22T16:13:27.527Z,26.12
2018-08-22T16:16:01.175Z,26.25
2018-08-22T16:18:34.213Z,26.31
2018-08-22T16:21:07.363Z,26.31
2018-08-22T16:23:40.331Z,26.37
2018-08-22T16:26:13.539Z,26.12
2018-08-22T16:28:54.434Z,26.06
2018-08-22T16:31:33.279Z,26.00
2018-08-22T16:34:08.567Z,25.88
2018-08-22T16:36:41.742Z,25.81
2018-08-22T16:39:29.910Z,25.81
2018-08-22T16:42:02.906Z,25.88
2018-08-22T16:44:35.910Z,25.69
2018-08-22T16:47:08.995Z,25.62
2018-08-22T16:49:42.093Z,25.56
2018-08-22T16:52:15.282Z,25.50
2018-08-22T16:54:52.991Z,25.56
2018-08-22T16:57:26.129Z,25.69
2018-08-22T16:59:59.352Z,25.75
2018-08-22T17:02:32.321Z,25.88
2018-08-22T17:05:05.543Z,25.62
2018-08-22T17:07:38.661Z,25.69
2018-08-22T17:10:11.833Z,25.69
2018-08-22T17:12:45.060Z,25.69
2018-08-22T17:15:18.198Z,25.62
2018-08-22T17:17:51.371Z,25.62
2018-08-22T17:20:24.497Z,25.44
2018-08-22T17:22:57.577Z,25.44
2018-08-22T17:25:30.700Z,25.37
2018-08-22T17:28:03.794Z,25.31
2018-08-22T17:30:39.774Z,25.19
2018-08-22T17:33:12.990Z,25.37
2018-08-22T17:35:46.444Z,25.25
2018-08-22T17:38:19.472Z,25.19
2018-08-22T17:40:52.738Z,25.19
2018-08-22T17:43:25.740Z,25.19
2018-08-22T17:45:59.106Z,25.25
2018-08-22T17:48:32.108Z,25.19
2018-08-22T17:51:05.095Z,25.06
2018-08-22T17:53:38.227Z,25.00
2018-08-22T17:56:11.290Z,24.81
2018-08-22T17:58:44.510Z,24.81
2018-08-22T18:01:17.730Z,24.81
2018-08-22T18:03:52.939Z,24.69
2018-08-22T18:06:26.169Z,24.63
2018-08-22T18:08:59.240Z,24.56
2018-08-22T18:11:32.473Z,24.50
2018-08-22T18:14:05.649Z,24.44
2018-08-22T18:16:38.711Z,24.12
2018-08-22T18:19:12.089Z,24.19
2018-08-22T18:21:46.301Z,24.25
2018-08-22T18:24:19.615Z,24.06
2018-08-22T18:26:52.866Z,24.06
2018-08-22T18:29:25.980Z,24.00
2018-08-22T18:31:59.214Z,24.00
2018-08-22T18:34:32.545Z,23.94
2018-08-22T18:37:05.778Z,23.81
2018-08-22T18:39:38.946Z,23.81
2018-08-22T18:42:12.129Z,23.81
2018-08-22T18:44:45.303Z,23.75
2018-08-22T18:47:18.525Z,23.62
2018-08-22T18:49:51.704Z,23.69
2018-08-22T18:52:24.833Z,23.56
2018-08-22T18:55:00.055Z,23.50
2018-08-22T18:57:33.345Z,23.50
2018-08-22T19:00:07.559Z,23.44
2018-08-22T19:02:40.829Z,23.25
2018-08-22T19:05:24.712Z,23.31
2018-08-22T19:07:59.758Z,23.25
2018-08-22T19:10:35.081Z,23.25
2018-08-22T19:13:10.018Z,23.25
2018-08-22T19:15:47.110Z,23.19
2018-08-22T19:18:20.329Z,22.94
2018-08-22T19:20:54.438Z,23.06
2018-08-22T19:23:27.785Z,23.00
2018-08-22T19:26:02.299Z,23.06
2018-08-22T19:28:51.563Z,22.94
2018-08-22T19:31:24.642Z,23.00
2018-08-22T19:33:57.862Z,22.87
2018-08-22T19:36:31.045Z,22.94
2018-08-22T19:39:05.382Z,22.87
2018-08-22T19:41:38.484Z,22.81
2018-08-22T19:44:12.491Z,22.69
2018-08-22T19:46:45.695Z,22.69
2018-08-22T19:49:18.821Z,22.62
2018-08-22T19:51:52.031Z,22.50
2018-08-22T19:54:25.029Z,22.56
2018-08-22T19:56:58.845Z,22.75
2018-08-22T19:59:31.844Z,22.50
2018-08-22T20:02:05.158Z,22.44
2018-08-22T20:04:43.273Z,22.50
2018-08-22T20:07:16.262Z,22.50
2018-08-22T20:09:50.587Z,22.44
2018-08-22T20:12:35.409Z,22.50
2018-08-22T20:15:08.708Z,22.44
2018-08-22T20:17:45.506Z,22.19
2018-08-22T20:20:19.175Z,22.37
2018-08-22T20:22:54.246Z,22.31
2018-08-22T20:25:27.353Z,22.56
2018-08-22T20:28:00.385Z,22.62
2018-08-22T20:30:33.439Z,22.81
2018-08-22T20:33:08.212Z,22.69
2018-08-22T20:35:41.774Z,22.69
2018-08-22T20:38:15.016Z,22.75
2018-08-22T20:40:48.824Z,22.87
2018-08-22T20:43:27.882Z,22.87
2018-08-22T20:46:01.120Z,22.87
2018-08-22T20:48:34.272Z,22.69
2018-08-22T20:51:07.441Z,22.69
2018-08-22T20:53:40.644Z,22.87
2018-08-22T20:56:13.866Z,22.81
2018-08-22T20:58:46.983Z,22.75
2018-08-22T21:01:20.158Z,22.87
2018-08-22T21:03:53.179Z,22.75
2018-08-22T21:06:26.372Z,22.69
2018-08-22T21:08:59.614Z,22.56
2018-08-22T21:11:32.797Z,22.56
2018-08-22T21:14:06.116Z,22.44
2018-08-22T21:16:39.237Z,22.31
2018-08-22T21:19:12.492Z,22.31
2018-08-22T21:21:45.739Z,22.19
2018-08-22T21:24:18.974Z,22.13
2018-08-22T21:26:52.087Z,21.87
2018-08-22T21:29:25.257Z,22.13
2018-08-22T21:31:58.472Z,22.00
2018-08-22T21:34:31.540Z,21.94
2018-08-22T21:37:28.297Z,21.87
2018-08-22T21:40:01.276Z,21.87
2018-08-22T21:42:34.402Z,21.56
2018-08-22T21:45:07.497Z,21.81
2018-08-22T21:47:40.522Z,21.62
2018-08-22T21:50:13.668Z,21.62
2018-08-22T21:52:50.204Z,21.69
2018-08-22T21:55:27.964Z,21.50
2018-08-22T21:58:01.023Z,21.37
2018-08-22T22:00:34.208Z,21.37
2018-08-22T22:03:08.111Z,21.44
2018-08-22T22:05:50.231Z,21.37
2018-08-22T22:08:23.415Z,21.37
2018-08-22T22:10:57.715Z,21.37
2018-08-22T22:13:30.810Z,21.50
2018-08-22T22:16:04.804Z,21.06
2018-08-22T22:18:37.850Z,21.06
2018-08-22T22:21:13.059Z,20.94
2018-08-22T22:23:47.451Z,20.81
2018-08-22T22:26:20.579Z,21.00
2018-08-22T22:28:53.717Z,21.00
2018-08-22T22:31:26.857Z,21.00
2018-08-22T22:34:02.757Z,20.81
2018-08-22T22:36:35.860Z,20.88
2018-08-22T22:39:24.046Z,21.06
2018-08-22T22:41:57.146Z,20.94
2018-08-22T22:44:30.934Z,20.69
2018-08-22T22:47:04.297Z,20.62
2018-08-22T22:49:37.391Z,20.56
2018-08-22T22:52:22.339Z,20.56
2018-08-22T22:54:57.610Z,20.69
2018-08-22T22:57:32.136Z,20.75
2018-08-22T23:00:07.600Z,20.50
2018-08-22T23:02:40.705Z,20.50
2018-08-22T23:05:13.902Z,20.44
2018-08-22T23:07:47.102Z,20.50
2018-08-22T23:10:20.333Z,20.50
2018-08-22T23:12:53.446Z,20.44
2018-08-22T23:15:27.938Z,20.44
2018-08-22T23:18:01.769Z,20.31
2018-08-22T23:20:42.704Z,20.19
2018-08-22T23:23:35.890Z,20.37
2018-08-22T23:26:15.069Z,20.19
2018-08-22T23:28:48.047Z,20.31
2018-08-22T23:31:21.288Z,20.19
2018-08-22T23:33:54.526Z,20.19
2018-08-22T23:36:27.649Z,20.12
2018-08-22T23:39:00.715Z,20.25
2018-08-22T23:41:33.837Z,20.06
2018-08-22T23:44:07.594Z,20.25
2018-08-22T23:46:40.743Z,19.94
2018-08-22T23:49:13.861Z,20.19
2018-08-22T23:51:47.043Z,20.00
2018-08-22T23:54:20.205Z,19.94
2018-08-22T23:56:58.099Z,20.00
2018-08-22T23:59:31.200Z,19.94
